Time;durP1;ratioP1;P1;durP2;ratioP2;P2;SDS_P1;SDS_P2;PMS_P1;PMS_P2;Temp;Humidity;BMP_temperature;BMP_pressure;BME280_temperature;BME280_humidity;BME280_pressure;Samples;Min_cycle;Max_cycle;Signal;HPM_P1;HPM_P2
2022/03/28 00:00:57;;;;;;;12.48;6.25;;;10.20;92.80;;;;;;5057149;28;20086;-75
2022/03/28 00:03:22;;;;;;;14.93;6.43;;;10.20;93.20;;;;;;5057042;28;20025;-75
2022/03/28 00:05:48;;;;;;;10.85;6.63;;;10.20;93.60;;;;;;5074473;28;20040;-75
2022/03/28 00:08:13;;;;;;;19.00;7.00;;;10.10;93.80;;;;;;5074901;28;20029;-76
2022/03/28 00:10:39;;;;;;;11.68;5.93;;;10.10;94.10;;;;;;5056570;28;20027;-76
2022/03/28 00:13:05;;;;;;;12.55;7.30;;;10.10;94.40;;;;;;5056938;28;20468;-75
2022/03/28 00:15:31;;;;;;;13.40;6.55;;;10.00;94.70;;;;;;5074329;28;20354;-76
2022/03/28 00:17:57;;;;;;;13.95;6.53;;;9.80;95.20;;;;;;5056826;28;20111;-75
2022/03/28 00:20:24;;;;;;;12.50;6.32;;;9.90;95.00;;;;;;5053233;28;20128;-77
2022/03/28 00:22:50;;;;;;;14.07;6.28;;;9.90;95.00;;;;;;5053012;28;20442;-74
2022/03/28 00:25:16;;;;;;;10.65;6.22;;;9.80;95.20;;;;;;5053428;28;20024;-75
2022/03/28 00:27:41;;;;;;;14.15;6.53;;;9.80;95.30;;;;;;5052826;28;20378;-76
2022/03/28 00:30:08;;;;;;;13.05;7.10;;;9.80;95.40;;;;;;5053236;28;20079;-75
2022/03/28 00:32:34;;;;;;;12.90;6.72;;;9.80;95.60;;;;;;5054066;28;20025;-76
2022/03/28 00:35:00;;;;;;;12.40;6.55;;;9.70;96.00;;;;;;5053101;28;20036;-75
2022/03/28 00:37:26;;;;;;;15.48;6.72;;;9.70;95.60;;;;;;5053105;28;20024;-75
2022/03/28 00:39:52;;;;;;;13.20;6.90;;;9.70;95.40;;;;;;5052643;28;20024;-75
2022/03/28 00:42:18;;;;;;;12.93;6.43;;;9.60;95.50;;;;;;5053053;28;20135;-76
2022/03/28 00:44:43;;;;;;;14.57;6.70;;;9.60;95.90;;;;;;5053985;28;20025;-76
2022/03/28 00:47:09;;;;;;;13.88;6.75;;;9.60;95.70;;;;;;5052923;28;20033;-76
2022/03/28 00:49:35;;;;;;;15.95;6.82;;;9.60;95.60;;;;;;5052782;28;20119;-76
2022/03/28 00:52:02;;;;;;;14.48;7.38;;;9.50;95.20;;;;;;5054424;28;20017;-77
2022/03/28 00:54:27;;;;;;;11.38;7.00;;;9.40;95.40;;;;;;5053127;28;20021;-76
2022/03/28 00:56:55;;;;;;;17.00;6.38;;;9.40;95.50;;;;;;5052734;28;20028;-76
2022/03/28 00:59:21;;;;;;;13.77;6.82;;;9.30;95.50;;;;;;5053033;28;20048;-76
2022/03/28 01:01:46;;;;;;;14.05;7.30;;;9.20;95.80;;;;;;5052407;28;20092;-76
2022/03/28 01:04:12;;;;;;;14.45;6.35;;;9.20;96.20;;;;;;5053880;28;20056;-76
2022/03/28 01:06:38;;;;;;;12.40;6.13;;;9.20;96.50;;;;;;5051990;28;20033;-75
2022/03/28 01:09:05;;;;;;;9.73;5.78;;;9.20;96.70;;;;;;5053850;28;20354;-76
2022/03/28 01:11:35;;;;;;;14.68;6.70;;;9.20;96.60;;;;;;5052547;28;20039;-76
2022/03/28 01:14:01;;;;;;;10.95;6.03;;;9.30;96.60;;;;;;5052476;28;20028;-76
2022/03/28 01:16:31;;;;;;;13.45;6.93;;;9.40;96.70;;;;;;5052338;28;20025;-75
2022/03/28 01:18:56;;;;;;;11.15;6.10;;;9.40;96.50;;;;;;5052710;28;20048;-76
2022/03/28 01:21:22;;;;;;;11.90;6.82;;;9.40;96.00;;;;;;5073652;28;20059;-76
2022/03/28 01:23:48;;;;;;;11.23;6.60;;;9.30;95.50;;;;;;5055226;28;20028;-76
2022/03/28 01:26:16;;;;;;;10.15;5.90;;;9.30;95.50;;;;;;5073346;28;20032;-75
2022/03/28 01:28:42;;;;;;;11.65;6.60;;;9.30;95.80;;;;;;5055099;28;20024;-76
2022/03/28 01:31:08;;;;;;;14.10;7.13;;;9.20;95.90;;;;;;5055615;28;20334;-75
2022/03/28 01:33:35;;;;;;;15.25;6.60;;;9.10;95.70;;;;;;5054753;28;20480;-85
2022/03/28 01:36:00;;;;;;;11.27;6.53;;;9.10;95.80;;;;;;5055563;28;20028;-76
2022/03/28 01:38:26;;;;;;;15.27;6.65;;;9.00;96.10;;;;;;5073076;28;20082;-76
2022/03/28 01:40:52;;;;;;;14.20;6.60;;;8.80;96.70;;;;;;5072436;28;20024;-75
2022/03/28 01:43:19;;;;;;;15.07;6.40;;;8.70;97.00;;;;;;5055323;28;20162;-75
2022/03/28 01:45:45;;;;;;;12.60;6.90;;;8.80;97.50;;;;;;5072609;28;20461;-76
2022/03/28 01:48:11;;;;;;;13.75;7.03;;;8.70;97.30;;;;;;5073291;28;20113;-75
2022/03/28 01:50:38;;;;;;;12.45;6.50;;;8.60;97.40;;;;;;5072324;28;20020;-76
2022/03/28 01:53:04;;;;;;;12.82;6.72;;;8.60;97.60;;;;;;5055298;28;20032;-76
2022/03/28 01:55:30;;;;;;;13.02;6.68;;;8.50;97.40;;;;;;5055268;28;20362;-76
2022/03/28 01:57:56;;;;;;;14.57;7.13;;;8.60;97.20;;;;;;5072642;28;20024;-76
2022/03/28 02:00:25;;;;;;;16.80;6.60;;;8.50;97.20;;;;;;5073061;28;20073;-76
2022/03/28 02:02:51;;;;;;;13.10;6.60;;;8.40;97.50;;;;;;5054624;28;20047;-76
2022/03/28 02:05:18;;;;;;;17.73;8.10;;;8.40;97.50;;;;;;5072722;28;20070;-76
2022/03/28 02:07:47;;;;;;;12.63;7.20;;;8.40;97.40;;;;;;5054655;28;20420;-76
2022/03/28 02:10:15;;;;;;;15.00;6.65;;;8.30;97.70;;;;;;5055288;28;20029;-76
2022/03/28 02:12:41;;;;;;;12.80;6.68;;;8.20;97.80;;;;;;5072503;28;20103;-77
2022/03/28 02:15:09;;;;;;;13.82;6.95;;;8.20;97.80;;;;;;5054941;28;20334;-76
2022/03/28 02:17:35;;;;;;;13.50;6.78;;;8.10;97.90;;;;;;5055062;28;20424;-75
2022/03/28 02:20:01;;;;;;;13.23;6.35;;;8.10;98.10;;;;;;5054414;28;20036;-76
2022/03/28 02:22:27;;;;;;;15.82;7.10;;;8.00;98.40;;;;;;5054883;28;20025;-76
2022/03/28 02:24:53;;;;;;;13.85;6.43;;;8.00;98.40;;;;;;5054243;28;20021;-76
2022/03/28 02:27:18;;;;;;;12.88;7.05;;;8.00;98.60;;;;;;5072707;28;20036;-76
2022/03/28 02:29:44;;;;;;;11.93;6.72;;;8.00;98.70;;;;;;5054381;28;20033;-76
2022/03/28 02:32:12;;;;;;;12.95;7.00;;;7.90;99.00;;;;;;5055008;28;20116;-77
2022/03/28 02:34:38;;;;;;;14.20;7.30;;;7.90;99.10;;;;;;5054402;28;20119;-77
2022/03/28 02:37:04;;;;;;;14.70;7.18;;;7.90;99.20;;;;;;5055018;28;20119;-76
2022/03/28 02:39:29;;;;;;;12.55;6.70;;;7.90;99.20;;;;;;5054735;28;20016;-76
2022/03/28 02:41:55;;;;;;;12.90;6.90;;;7.90;99.40;;;;;;5054345;28;20020;-76
2022/03/28 02:44:20;;;;;;;16.73;6.45;;;7.90;99.40;;;;;;5054952;28;20116;-75
2022/03/28 02:46:46;;;;;;;13.98;6.65;;;7.90;99.00;;;;;;5054411;28;20028;-76
2022/03/28 02:49:13;;;;;;;13.13;7.15;;;7.90;99.20;;;;;;5072685;28;20025;-76
2022/03/28 02:51:39;;;;;;;15.52;6.65;;;8.00;99.20;;;;;;5054445;28;20127;-80
2022/03/28 02:54:06;;;;;;;15.45;6.72;;;8.00;99.30;;;;;;5072535;28;20354;-76
2022/03/28 02:56:32;;;;;;;15.23;6.72;;;7.90;99.40;;;;;;5072618;28;20067;-76
2022/03/28 02:58:58;;;;;;;16.27;6.85;;;7.90;99.50;;;;;;5054048;28;20052;-76
2022/03/28 03:01:23;;;;;;;12.75;7.35;;;7.80;99.40;;;;;;5072251;28;20028;-76
2022/03/28 03:03:49;;;;;;;15.80;6.68;;;7.80;99.40;;;;;;5071906;28;20025;-76
2022/03/28 03:06:14;;;;;;;13.18;7.10;;;7.70;99.50;;;;;;5072437;28;20028;-75
2022/03/28 03:08:40;;;;;;;12.75;6.55;;;7.50;99.90;;;;;;5054085;28;20033;-78
2022/03/28 03:11:06;;;;;;;15.80;7.28;;;7.50;99.90;;;;;;5054605;28;20028;-76
2022/03/28 03:13:31;;;;;;;15.13;7.10;;;7.50;99.60;;;;;;5072136;28;20020;-76
2022/03/28 03:15:58;;;;;;;12.00;6.75;;;7.40;99.50;;;;;;5072021;28;20025;-76
2022/03/28 03:18:24;;;;;;;14.57;6.35;;;7.40;99.60;;;;;;5056144;28;20055;-76
2022/03/28 03:20:50;;;;;;;14.23;6.68;;;7.50;99.40;;;;;;5075604;28;20409;-76
2022/03/28 03:23:16;;;;;;;12.48;6.55;;;7.40;99.40;;;;;;5058089;28;20021;-75
2022/03/28 03:25:41;;;;;;;14.93;6.38;;;7.30;99.50;;;;;;5057361;28;20021;-76
2022/03/28 03:28:07;;;;;;;14.50;7.35;;;7.30;99.30;;;;;;5057757;28;20388;-75
2022/03/28 03:30:32;;;;;;;17.45;7.60;;;7.20;99.50;;;;;;5057774;28;20086;-75
2022/03/28 03:32:58;;;;;;;12.10;6.45;;;7.10;99.80;;;;;;5057064;28;20031;-75
2022/03/28 03:35:24;;;;;;;14.43;6.50;;;7.10;99.90;;;;;;5057628;28;20028;-75
2022/03/28 03:37:50;;;;;;;10.45;6.30;;;7.00;99.90;;;;;;5057243;28;20042;-75
2022/03/28 03:40:16;;;;;;;15.10;6.78;;;7.10;99.90;;;;;;5057646;28;20086;-75
2022/03/28 03:42:41;;;;;;;12.73;6.45;;;7.00;99.90;;;;;;5057090;28;20128;-80
2022/03/28 03:45:08;;;;;;;14.02;6.60;;;7.00;99.90;;;;;;5075392;28;20024;-76
2022/03/28 03:47:35;;;;;;;12.77;6.50;;;6.90;99.90;;;;;;5075404;28;20028;-75
2022/03/28 03:50:00;;;;;;;11.73;6.60;;;6.90;99.90;;;;;;5056994;28;20414;-75
2022/03/28 03:52:26;;;;;;;15.05;6.45;;;6.80;99.90;;;;;;5057352;28;20024;-75
2022/03/28 03:54:52;;;;;;;13.40;6.30;;;6.80;99.90;;;;;;5056939;28;20021;-76
2022/03/28 03:57:17;;;;;;;12.30;6.60;;;6.60;99.90;;;;;;5057217;28;20031;-75
2022/03/28 03:59:43;;;;;;;12.60;6.22;;;6.60;99.90;;;;;;5056771;28;20017;-76
2022/03/28 04:02:08;;;;;;;13.52;6.07;;;6.60;99.90;;;;;;5075160;28;20146;-76
2022/03/28 04:04:34;;;;;;;12.57;6.93;;;6.40;99.90;;;;;;5057154;28;20029;-75
2022/03/28 04:07:00;;;;;;;15.80;6.45;;;6.40;99.90;;;;;;5074456;28;20028;-75
2022/03/28 04:09:25;;;;;;;15.98;6.78;;;6.40;99.90;;;;;;5057057;28;20025;-75
2022/03/28 04:11:51;;;;;;;14.23;6.82;;;6.40;99.90;;;;;;5074824;28;20048;-75
2022/03/28 04:14:16;;;;;;;11.40;5.65;;;6.50;99.90;;;;;;5056979;28;20390;-75
2022/03/28 04:16:43;;;;;;;14.23;6.10;;;6.50;99.90;;;;;;5057001;28;20025;-75
2022/03/28 04:19:09;;;;;;;11.38;5.85;;;6.50;99.90;;;;;;5056685;28;20484;-74
2022/03/28 04:21:34;;;;;;;15.20;6.23;;;6.40;99.90;;;;;;5056910;28;20056;-76
2022/03/28 04:24:00;;;;;;;14.13;6.00;;;6.40;99.90;;;;;;5056249;28;20027;-76
2022/03/28 04:26:26;;;;;;;13.63;6.30;;;6.40;99.90;;;;;;5074667;28;20024;-76
2022/03/28 04:28:51;;;;;;;15.05;6.55;;;6.30;99.90;;;;;;5055917;28;20024;-76
2022/03/28 04:31:17;;;;;;;11.32;6.15;;;6.30;99.90;;;;;;5056348;28;20060;-78
2022/03/28 04:33:43;;;;;;;14.00;6.13;;;6.20;99.90;;;;;;5074398;28;20074;-76
2022/03/28 04:36:08;;;;;;;12.77;6.13;;;6.20;99.90;;;;;;5074002;28;20036;-75
2022/03/28 04:38:34;;;;;;;14.00;6.03;;;6.20;99.90;;;;;;5056659;28;20043;-76
2022/03/28 04:41:00;;;;;;;14.93;6.87;;;6.10;99.90;;;;;;5073940;28;20193;-76
2022/03/28 04:43:25;;;;;;;13.10;6.23;;;6.10;99.90;;;;;;5056371;28;20090;-75
2022/03/28 04:45:51;;;;;;;10.77;6.47;;;6.20;99.90;;;;;;5073636;28;20017;-76
2022/03/28 04:48:17;;;;;;;14.50;6.67;;;6.10;99.90;;;;;;5056301;28;20507;-75
2022/03/28 04:50:42;;;;;;;11.97;6.10;;;6.00;99.90;;;;;;5056311;28;20103;-76
2022/03/28 04:53:08;;;;;;;13.23;5.93;;;6.00;99.90;;;;;;5073872;28;20357;-76
2022/03/28 04:55:34;;;;;;;13.10;6.23;;;6.00;99.90;;;;;;5056277;28;20428;-76
2022/03/28 04:58:00;;;;;;;11.87;6.20;;;6.00;99.90;;;;;;5055779;28;20060;-75
2022/03/28 05:00:26;;;;;;;12.50;6.10;;;6.00;99.90;;;;;;5073644;28;20471;-75
2022/03/28 05:02:52;;;;;;;14.00;6.37;;;6.00;99.90;;;;;;5055660;28;20024;-76
2022/03/28 05:05:17;;;;;;;12.27;5.93;;;5.90;99.90;;;;;;5056246;28;20086;-76
2022/03/28 05:07:43;;;;;;;12.07;5.80;;;5.90;99.90;;;;;;5073870;28;20021;-76
2022/03/28 05:10:09;;;;;;;8.60;5.30;;;6.00;99.90;;;;;;5073206;28;20108;-75
2022/03/28 05:12:35;;;;;;;13.60;5.88;;;6.00;99.90;;;;;;5073658;28;20021;-75
2022/03/28 05:15:01;;;;;;;11.27;5.40;;;6.00;99.90;;;;;;5055030;28;20028;-75
2022/03/28 05:17:29;;;;;;;9.97;5.47;;;6.10;99.90;;;;;;5055713;28;20028;-75
2022/03/28 05:19:56;;;;;;;12.83;6.20;;;6.10;99.90;;;;;;5054728;28;20040;-75
2022/03/28 05:22:23;;;;;;;14.48;5.72;;;6.00;99.90;;;;;;5055607;28;20039;-75
2022/03/28 05:24:50;;;;;;;11.37;5.83;;;5.90;99.90;;;;;;5055250;28;20027;-75
2022/03/28 05:27:16;;;;;;;14.73;6.53;;;5.80;99.90;;;;;;5055524;28;20365;-75
2022/03/28 05:29:43;;;;;;;12.10;5.57;;;5.80;99.90;;;;;;5055541;28;20039;-75
2022/03/28 05:32:09;;;;;;;12.33;5.97;;;5.70;99.90;;;;;;5054938;28;20024;-75
2022/03/28 05:34:35;;;;;;;13.77;6.20;;;5.70;99.90;;;;;;5072994;28;20035;-75
2022/03/28 05:37:04;;;;;;;12.40;5.67;;;5.70;99.90;;;;;;5072851;28;20441;-75
2022/03/28 05:39:32;;;;;;;11.20;6.10;;;5.80;99.90;;;;;;5055244;28;20059;-75
2022/03/28 05:41:59;;;;;;;12.30;6.30;;;5.70;99.90;;;;;;5053809;28;20027;-76
2022/03/28 05:44:24;;;;;;;12.43;6.40;;;5.70;99.90;;;;;;5073388;28;20067;-75
2022/03/28 05:46:51;;;;;;;11.23;5.70;;;5.70;99.90;;;;;;5054727;28;20052;-76
2022/03/28 05:49:18;;;;;;;14.30;6.57;;;5.70;99.90;;;;;;5055245;28;20024;-75
2022/03/28 05:51:44;;;;;;;16.20;6.27;;;5.70;99.90;;;;;;5055251;28;20028;-75
2022/03/28 05:54:10;;;;;;;15.47;5.93;;;5.80;99.90;;;;;;5054643;28;20483;-75
2022/03/28 05:56:35;;;;;;;12.47;6.00;;;5.90;99.90;;;;;;5055047;28;20454;-75
2022/03/28 05:59:02;;;;;;;13.43;6.20;;;6.00;99.90;;;;;;5072246;28;20069;-76
2022/03/28 06:01:29;;;;;;;17.37;7.80;;;6.00;99.90;;;;;;5054928;28;20017;-76
2022/03/28 06:03:54;;;;;;;12.53;6.30;;;6.00;99.90;;;;;;5072556;28;20029;-75
2022/03/28 06:06:20;;;;;;;14.50;6.37;;;6.00;99.90;;;;;;5054823;28;20369;-75
2022/03/28 06:08:46;;;;;;;13.60;6.70;;;6.20;99.90;;;;;;5055092;28;20025;-75
2022/03/28 06:11:11;;;;;;;12.87;6.30;;;6.20;99.90;;;;;;5072478;28;20407;-75
2022/03/28 06:13:37;;;;;;;16.77;6.60;;;6.20;99.90;;;;;;5072918;28;20024;-75
2022/03/28 06:16:04;;;;;;;15.57;6.67;;;6.10;99.90;;;;;;5054373;28;20016;-75
2022/03/28 06:18:30;;;;;;;12.57;6.07;;;6.20;99.90;;;;;;5072896;28;20020;-75
2022/03/28 06:20:55;;;;;;;17.23;7.00;;;6.40;99.90;;;;;;5072635;28;20098;-75
2022/03/28 06:23:21;;;;;;;12.80;6.13;;;6.40;99.90;;;;;;5055146;28;20090;-75
2022/03/28 06:25:47;;;;;;;16.07;7.17;;;6.50;99.90;;;;;;5072820;28;20024;-75
2022/03/28 06:28:13;;;;;;;13.27;6.47;;;6.60;99.90;;;;;;5072249;28;20028;-76
2022/03/28 06:30:39;;;;;;;17.33;7.23;;;6.70;99.90;;;;;;5054462;28;20038;-76
2022/03/28 06:33:05;;;;;;;16.97;6.87;;;6.80;99.90;;;;;;5054296;28;20032;-76
2022/03/28 06:35:30;;;;;;;19.20;6.93;;;6.80;99.90;;;;;;5072972;28;20029;-76
2022/03/28 06:37:56;;;;;;;14.30;7.00;;;7.00;99.90;;;;;;5054476;28;20025;-77
2022/03/28 06:40:24;;;;;;;15.05;7.47;;;7.10;99.90;;;;;;5072636;28;20067;-76
2022/03/28 06:42:50;;;;;;;15.30;7.43;;;7.10;99.90;;;;;;5054894;28;20112;-76
2022/03/28 06:45:15;;;;;;;15.30;7.80;;;7.30;99.90;;;;;;5072333;28;20094;-75
2022/03/28 06:47:41;;;;;;;17.10;6.82;;;7.40;99.90;;;;;;5054785;28;20086;-77
2022/03/28 06:50:08;;;;;;;21.05;8.02;;;7.50;99.90;;;;;;5054266;28;20039;-76
2022/03/28 06:52:35;;;;;;;20.52;8.65;;;7.50;99.90;;;;;;5073905;28;20021;-76
2022/03/28 06:55:01;;;;;;;24.80;9.07;;;7.60;99.90;;;;;;5057682;28;20058;-76
2022/03/28 06:57:27;;;;;;;20.70;9.00;;;7.70;99.90;;;;;;5057794;28;20050;-75
2022/03/28 06:59:53;;;;;;;24.55;10.57;;;7.80;99.90;;;;;;5057192;28;20116;-85
2022/03/28 07:02:19;;;;;;;22.83;9.77;;;8.00;99.90;;;;;;5076081;28;20334;-74
2022/03/28 07:04:45;;;;;;;25.65;10.35;;;8.10;99.90;;;;;;5076069;28;20031;-75
2022/03/28 07:07:11;;;;;;;27.55;10.15;;;8.20;99.90;;;;;;5075000;28;20020;-76
2022/03/28 07:09:37;;;;;;;28.08;8.93;;;8.30;99.90;;;;;;5075288;28;20020;-76
2022/03/28 07:12:05;;;;;;;23.55;8.73;;;8.40;99.90;;;;;;5057029;28;20023;-75
2022/03/28 07:14:34;;;;;;;24.70;8.90;;;8.40;99.90;;;;;;5073174;28;20390;-75
2022/03/28 07:17:00;;;;;;;19.27;8.68;;;8.50;99.90;;;;;;5057564;28;20024;-75
2022/03/28 07:19:26;;;;;;;21.52;8.13;;;8.70;99.70;;;;;;5075436;28;20051;-76
2022/03/28 07:21:52;;;;;;;16.48;7.82;;;8.80;99.40;;;;;;5057789;28;20361;-75
2022/03/28 07:24:17;;;;;;;20.35;8.00;;;9.00;98.90;;;;;;5057283;28;20025;-75
2022/03/28 07:26:48;;;;;;;19.15;8.05;;;9.10;98.80;;;;;;5057709;28;20055;-76
2022/03/28 07:29:17;;;;;;;13.20;6.97;;;9.20;98.50;;;;;;5057372;28;20029;-76
2022/03/28 07:31:54;;;;;;;17.20;8.07;;;9.30;98.00;;;;;;5057431;28;20025;-76
2022/03/28 07:34:34;;;;;;;17.25;7.90;;;9.40;97.60;;;;;;5057764;28;20085;-76
2022/03/28 07:37:02;;;;;;;20.17;7.47;;;9.40;97.80;;;;;;5075036;28;20050;-75
2022/03/28 07:39:29;;;;;;;20.98;8.13;;;9.60;98.00;;;;;;5057558;28;20373;-75
2022/03/28 07:41:55;;;;;;;15.73;7.45;;;9.60;97.80;;;;;;5074751;28;20020;-87
2022/03/28 07:44:21;;;;;;;17.10;7.65;;;9.70;96.90;;;;;;5057406;28;20020;-76
2022/03/28 07:46:47;;;;;;;18.55;8.55;;;9.80;96.90;;;;;;5075077;28;20154;-76
2022/03/28 07:49:16;;;;;;;19.77;7.43;;;9.80;96.50;;;;;;5056771;28;20024;-76
2022/03/28 07:51:42;;;;;;;19.08;8.30;;;9.90;96.30;;;;;;5075262;28;20027;-74
2022/03/28 07:54:07;;;;;;;17.98;8.38;;;9.90;96.10;;;;;;5056680;28;20016;-75
2022/03/28 07:56:33;;;;;;;15.85;8.20;;;10.00;96.20;;;;;;5057457;28;20028;-75
2022/03/28 07:58:59;;;;;;;17.45;8.05;;;10.00;96.20;;;;;;5074515;28;20020;-75
2022/03/28 08:01:25;;;;;;;19.23;8.10;;;10.10;96.20;;;;;;5056869;28;20119;-75
2022/03/28 08:03:51;;;;;;;17.33;8.13;;;10.10;96.60;;;;;;5056232;28;20055;-75
2022/03/28 08:06:17;;;;;;;20.73;8.18;;;10.20;97.20;;;;;;5056439;28;20426;-76
2022/03/28 08:08:43;;;;;;;19.77;8.90;;;10.30;96.90;;;;;;5074961;28;20099;-76
2022/03/28 08:11:09;;;;;;;17.58;8.63;;;10.40;96.90;;;;;;5073348;28;20458;-78
2022/03/28 08:13:35;;;;;;;16.83;8.48;;;10.50;97.20;;;;;;5074280;28;20038;-75
2022/03/28 08:16:01;;;;;;;18.23;8.45;;;10.60;96.90;;;;;;5055688;28;20066;-76
2022/03/28 08:18:26;;;;;;;17.75;8.38;;;10.60;96.90;;;;;;5064884;28;20016;-76
2022/03/28 08:20:53;;;;;;;18.80;8.23;;;10.70;96.90;;;;;;5049623;28;20475;-75
2022/03/28 08:23:20;;;;;;;17.88;7.97;;;10.80;96.40;;;;;;5052247;28;20238;-76
2022/03/28 08:25:47;;;;;;;19.65;8.23;;;10.80;95.80;;;;;;5053258;28;20025;-75
2022/03/28 08:28:13;;;;;;;14.73;7.47;;;10.90;95.60;;;;;;5052807;28;20108;-76
2022/03/28 08:30:39;;;;;;;15.07;7.72;;;11.00;96.10;;;;;;5054418;28;20043;-75
2022/03/28 08:33:05;;;;;;;15.68;7.88;;;11.10;95.20;;;;;;5052657;28;20400;-75
2022/03/28 08:35:30;;;;;;;20.50;7.70;;;11.10;95.00;;;;;;5053359;28;20025;-75
2022/03/28 08:37:56;;;;;;;21.63;8.35;;;11.20;94.80;;;;;;5052986;28;20025;-75
2022/03/28 08:40:22;;;;;;;15.77;8.15;;;11.30;94.30;;;;;;5052128;28;20021;-76
2022/03/28 08:42:49;;;;;;;17.48;8.30;;;11.40;94.40;;;;;;5052530;28;20029;-76
2022/03/28 08:45:16;;;;;;;17.23;8.10;;;11.40;94.00;;;;;;5053332;28;20013;-75
2022/03/28 08:47:45;;;;;;;16.75;8.13;;;11.50;94.20;;;;;;5052218;28;20032;-75
2022/03/28 08:50:12;;;;;;;14.90;7.78;;;11.60;94.20;;;;;;5050884;28;20036;-75
2022/03/28 08:52:40;;;;;;;16.17;7.75;;;11.70;93.90;;;;;;5052743;28;20397;-75
2022/03/28 08:55:07;;;;;;;16.50;7.47;;;11.80;92.80;;;;;;5049646;28;20108;-76
2022/03/28 08:57:33;;;;;;;15.57;7.95;;;11.90;92.40;;;;;;5050960;28;20113;-75
2022/03/28 08:59:59;;;;;;;16.65;7.90;;;11.90;91.60;;;;;;5053864;28;20437;-75
2022/03/28 09:02:47;;;;;;;16.58;7.47;;;12.00;91.50;;;;;;5054281;28;20024;-75
2022/03/28 09:05:17;;;;;;;18.30;8.20;;;12.10;90.50;;;;;;5049683;28;20036;-81
2022/03/28 09:07:44;;;;;;;20.90;7.95;;;12.10;90.70;;;;;;5054469;28;20145;-78
2022/03/28 09:10:20;;;;;;;20.20;8.15;;;12.20;90.80;;;;;;5053523;28;20369;-77
2022/03/28 09:13:05;;;;;;;16.83;8.30;;;12.30;91.10;;;;;;5052436;28;20086;-77
2022/03/28 09:15:48;;;;;;;19.55;8.57;;;12.40;91.30;;;;;;5055226;28;20039;-78
2022/03/28 09:18:27;;;;;;;33.17;9.52;;;12.40;91.50;;;;;;5056492;28;20016;-77
2022/03/28 09:20:59;;;;;;;22.20;9.60;;;12.50;91.30;;;;;;5047996;28;20097;-76
2022/03/28 09:23:32;;;;;;;21.65;8.48;;;12.50;91.00;;;;;;5047886;28;20012;-82
2022/03/28 09:25:58;;;;;;;21.77;8.73;;;12.50;91.50;;;;;;5064371;28;20025;-77
2022/03/28 09:28:33;;;;;;;19.55;9.38;;;12.50;91.80;;;;;;5054637;28;20025;-77
2022/03/28 09:31:24;;;;;;;18.33;9.50;;;12.60;92.40;;;;;;5069580;28;20385;-77
2022/03/28 09:34:19;;;;;;;14.70;8.30;;;12.70;91.60;;;;;;5061079;28;20350;-77
2022/03/28 09:36:56;;;;;;;20.58;9.23;;;12.80;91.20;;;;;;5051742;28;20516;-77
2022/03/28 09:39:29;;;;;;;19.20;8.20;;;12.90;91.00;;;;;;5052282;28;20099;-76
2022/03/28 09:42:10;;;;;;;15.55;7.60;;;12.90;90.60;;;;;;5054998;28;20041;-77
2022/03/28 09:44:35;;;;;;;18.55;7.95;;;13.00;90.60;;;;;;5056240;28;20017;-77
2022/03/28 09:47:10;;;;;;;22.00;9.05;;;13.00;90.00;;;;;;5054566;28;20108;-81
2022/03/28 09:49:37;;;;;;;17.42;8.10;;;13.00;89.00;;;;;;5062207;28;20024;-81
2022/03/28 09:52:09;;;;;;;20.83;8.20;;;13.20;89.50;;;;;;5056849;28;20025;-83
2022/03/28 09:54:44;;;;;;;15.85;8.20;;;13.30;88.60;;;;;;5048192;28;20104;-82
2022/03/28 09:57:11;;;;;;;16.13;7.88;;;13.40;86.20;;;;;;5058587;28;20033;-82
2022/03/28 09:59:41;;;;;;;18.38;8.02;;;13.40;85.60;;;;;;5054294;28;20103;-84
2022/03/28 10:02:34;;;;;;;18.70;8.70;;;13.40;85.70;;;;;;5054037;28;20021;-80
2022/03/28 10:04:59;;;;;;;;;;;13.50;86.60;;;;;;5047480;28;20041;-76
2022/03/28 10:07:25;;;;;;;18.98;8.27;;;13.60;85.90;;;;;;5058055;28;19904;-78
2022/03/28 10:09:51;;;;;;;17.98;7.65;;;13.60;85.50;;;;;;5063281;28;20031;-77
2022/03/28 10:12:19;;;;;;;20.38;8.93;;;13.70;86.90;;;;;;5048973;28;20029;-81
2022/03/28 10:14:48;;;;;;;19.38;8.88;;;13.80;82.70;;;;;;5046619;28;20056;-78
2022/03/28 10:17:14;;;;;;;16.45;8.15;;;13.90;80.60;;;;;;5047426;28;20112;-79
2022/03/28 10:19:40;;;;;;;16.90;7.63;;;14.10;80.30;;;;;;5054374;28;20137;-81
2022/03/28 10:22:10;;;;;;;19.17;7.30;;;14.20;76.30;;;;;;5058493;28;20467;-84
2022/03/28 10:24:36;;;;;;;20.70;7.93;;;14.30;76.00;;;;;;5055824;28;20017;-82
2022/03/28 10:27:04;;;;;;;17.42;8.05;;;14.40;74.80;;;;;;5056454;28;20381;-82
2022/03/28 10:29:35;;;;;;;19.30;8.02;;;14.50;73.40;;;;;;5057292;28;20036;-79
2022/03/28 10:32:06;;;;;;;18.10;7.40;;;14.60;73.10;;;;;;5061350;28;20361;-85
2022/03/28 10:34:47;;;;;;;19.75;8.75;;;14.70;71.30;;;;;;5062881;28;20480;-79
2022/03/28 10:37:34;;;;;;;17.83;7.32;;;14.80;71.50;;;;;;5057410;28;20032;-81
2022/03/28 10:40:18;;;;;;;17.25;6.85;;;14.90;70.60;;;;;;5057734;28;20518;-85
2022/03/28 10:43:09;;;;;;;15.85;7.25;;;15.10;68.30;;;;;;5060944;28;20289;-83
2022/03/28 10:45:39;;;;;;;14.18;5.25;;;15.10;65.90;;;;;;5060967;28;20025;-83
2022/03/28 10:48:07;;;;;;;15.10;7.00;;;15.20;65.20;;;;;;5065242;28;20025;-81
2022/03/28 10:50:42;;;;;;;17.63;7.70;;;15.40;66.70;;;;;;5069513;28;20036;-79
2022/03/28 10:53:26;;;;;;;17.33;6.45;;;15.40;65.50;;;;;;5068256;28;20021;-81
2022/03/28 10:56:05;;;;;;;22.73;7.80;;;15.50;63.00;;;;;;5071076;28;20020;-83
2022/03/28 10:58:53;;;;;;;19.45;8.13;;;15.60;63.20;;;;;;5064933;28;20028;-81
2022/03/28 11:01:31;;;;;;;18.10;7.57;;;15.70;62.20;;;;;;5059658;28;20073;-82
2022/03/28 11:04:15;;;;;;;17.30;6.55;;;15.70;61.30;;;;;;5061143;28;20079;-84
2022/03/28 11:06:46;;;;;;;13.45;6.88;;;15.80;62.50;;;;;;5063425;28;20033;-81
2022/03/28 11:09:13;;;;;;;19.92;7.53;;;15.90;61.40;;;;;;5057983;28;20031;-81
2022/03/28 11:12:00;;;;;;;15.85;7.90;;;16.00;60.40;;;;;;5058301;28;20033;-81
2022/03/28 11:14:39;;;;;;;20.55;7.22;;;16.00;59.00;;;;;;5058077;28;20028;-81
2022/03/28 11:17:28;;;;;;;22.48;7.72;;;16.10;58.60;;;;;;5064413;28;20033;-82
2022/03/28 11:19:55;;;;;;;17.02;7.40;;;16.20;57.60;;;;;;5067667;28;20107;-78
2022/03/28 11:22:56;;;;;;;19.70;7.10;;;16.20;57.70;;;;;;5075781;28;20044;-84
2022/03/28 11:25:35;;;;;;;15.88;6.78;;;16.40;56.60;;;;;;5048150;28;20041;-79
2022/03/28 11:28:21;;;;;;;15.52;6.97;;;16.30;55.90;;;;;;5069499;28;20070;-83
2022/03/28 11:31:06;;;;;;;17.65;6.88;;;16.40;55.70;;;;;;5059585;28;20044;-81
2022/03/28 11:33:36;;;;;;;16.08;7.05;;;16.50;56.50;;;;;;5046266;28;20136;-81
2022/03/28 11:36:09;;;;;;;15.32;7.13;;;16.60;56.40;;;;;;5056113;28;20033;-83
2022/03/28 11:38:45;;;;;;;15.18;7.05;;;16.70;54.00;;;;;;5057365;28;20121;-81
2022/03/28 11:41:15;;;;;;;18.50;7.45;;;16.80;55.20;;;;;;5058215;28;20070;-82
2022/03/28 11:43:43;;;;;;;20.13;8.32;;;16.90;54.90;;;;;;5055861;28;20116;-82
2022/03/28 11:46:21;;;;;;;21.30;9.45;;;17.00;54.80;;;;;;5053781;28;20016;-81
2022/03/28 11:49:18;;;;;;;18.80;9.10;;;17.00;54.40;;;;;;5054977;28;20148;-82
2022/03/28 11:51:44;;;;;;;13.10;7.32;;;17.10;54.00;;;;;;5042769;28;20392;-81
2022/03/28 11:54:12;;;;;;;16.98;7.38;;;17.00;54.80;;;;;;5052181;28;20413;-81
2022/03/28 11:59:24;;;;;;;14.60;6.78;;;17.30;55.40;;;;;;5039662;28;20028;-81
2022/03/28 12:02:01;;;;;;;18.02;6.65;;;17.30;57.10;;;;;;5053357;28;20087;-80
2022/03/28 12:04:27;;;;;;;16.52;7.22;;;17.30;54.80;;;;;;5053013;28;20029;-80
2022/03/28 12:06:53;;;;;;;17.30;7.75;;;17.40;53.60;;;;;;5055618;28;20021;-80
2022/03/28 12:09:21;;;;;;;16.60;7.57;;;17.50;53.20;;;;;;5051217;28;20032;-80
2022/03/28 12:11:48;;;;;;;16.67;7.00;;;17.50;53.20;;;;;;5060976;28;20121;-83
2022/03/28 12:14:15;;;;;;;15.63;6.50;;;17.50;54.20;;;;;;5057571;28;20159;-80
2022/03/28 12:16:52;;;;;;;16.50;6.45;;;17.70;53.40;;;;;;5059283;28;20060;-81
2022/03/28 12:19:20;;;;;;;16.10;6.53;;;17.90;54.30;;;;;;5077931;28;20045;-80
2022/03/28 12:21:46;;;;;;;16.13;6.97;;;18.00;56.30;;;;;;5063129;28;20039;-83
2022/03/28 12:24:11;;;;;;;16.45;7.13;;;18.20;53.90;;;;;;5058546;28;20021;-83
2022/03/28 12:26:44;;;;;;;14.30;7.03;;;18.40;51.00;;;;;;5070247;28;20111;-81
2022/03/28 12:29:11;;;;;;;19.23;6.40;;;18.70;51.60;;;;;;5059773;28;20381;-80
2022/03/28 12:31:40;;;;;;;19.55;6.10;;;19.00;49.70;;;;;;5062725;28;20020;-81
2022/03/28 12:34:06;;;;;;;15.75;7.13;;;19.20;50.10;;;;;;5062372;28;20029;-81
2022/03/28 12:36:34;;;;;;;15.07;6.78;;;19.40;48.30;;;;;;5048484;28;20033;-79
2022/03/28 12:39:04;;;;;;;15.95;6.80;;;19.60;46.90;;;;;;5062048;28;20029;-80
2022/03/28 12:41:30;;;;;;;13.48;6.05;;;19.80;45.20;;;;;;5060244;28;20493;-80
2022/03/28 12:43:56;;;;;;;15.35;6.50;;;20.10;45.20;;;;;;5065491;28;20096;-79
2022/03/28 12:46:23;;;;;;;18.40;7.30;;;20.30;43.70;;;;;;5053103;28;20036;-81
2022/03/28 12:48:49;;;;;;;16.75;6.88;;;20.40;43.90;;;;;;5061932;28;20029;-82
2022/03/28 12:51:21;;;;;;;16.77;7.28;;;20.70;43.70;;;;;;5051513;28;20033;-80